KCDH/CDH METAR and TAF weather

Enter ICAO airport designator
Station Type Date Time Source
KCDH METAR 2018/04/21 20:55 UTC NOAA

KCDH 212055Z AUTO 11003KT 9SM CLR 21/08 A3000 RMK AO2


Station Type Date Time Source
KCDH Decoded METAR 2018/04/21 20:55 UTC NOAA

Camden / Harrell Field, AR, United States (KCDH) 33-37N 092-46W
Apr 21, 2018 - 04:55 PM EDT / 2018.04.21 2055 UTC
Wind: from the ESE (110 degrees) at 3 MPH (3 KT):0
Visibility: 9 mile(s):0
Sky conditions: clear
Temperature: 69 F (21 C)
Dew Point: 46 F (8 C)
Relative Humidity: 43%
Pressure (altimeter): 30 in. Hg (1015 hPa)
ob: KCDH 212055Z AUTO 11003KT 9SM CLR 21/08 A3000 RMK AO2
cycle: 21

Station Type Date Time Source
KCDH TAF UTC NOAA

Error!


Example: see airport list